sensor_id;sensor_type;location;lat;lon;timestamp;pressure;altitude;pressure_sealevel;temperature;humidity
24558;BME280;12726;49.148;8.582;2023-03-01T00:01:05;101330.59;;;-0.76;73.82
24558;BME280;12726;49.148;8.582;2023-03-01T00:03:53;101341.44;;;-0.68;74.11
24558;BME280;12726;49.148;8.582;2023-03-01T00:06:39;101347.69;;;-0.69;74.20
24558;BME280;12726;49.148;8.582;2023-03-01T00:09:24;101346.56;;;-0.77;74.37
24558;BME280;12726;49.148;8.582;2023-03-01T00:12:14;101349.09;;;-0.76;74.45
24558;BME280;12726;49.148;8.582;2023-03-01T00:14:59;101336.50;;;-0.72;74.57
24558;BME280;12726;49.148;8.582;2023-03-01T00:17:45;101337.22;;;-0.70;74.19
24558;BME280;12726;49.148;8.582;2023-03-01T00:20:32;101333.88;;;-0.72;74.26
24558;BME280;12726;49.148;8.582;2023-03-01T00:23:17;101332.41;;;-0.76;74.26
24558;BME280;12726;49.148;8.582;2023-03-01T00:26:05;101334.19;;;-0.77;74.64
24558;BME280;12726;49.148;8.582;2023-03-01T00:28:52;101336.34;;;-0.82;74.62
24558;BME280;12726;49.148;8.582;2023-03-01T00:31:37;101331.44;;;-0.87;74.64
24558;BME280;12726;49.148;8.582;2023-03-01T00:34:22;101337.03;;;-0.91;74.98
24558;BME280;12726;49.148;8.582;2023-03-01T00:37:09;101332.50;;;-0.89;75.20
24558;BME280;12726;49.148;8.582;2023-03-01T00:39:55;101327.22;;;-0.89;74.94
24558;BME280;12726;49.148;8.582;2023-03-01T00:42:40;101329.97;;;-0.91;75.08
24558;BME280;12726;49.148;8.582;2023-03-01T00:45:26;101328.41;;;-0.93;75.25
24558;BME280;12726;49.148;8.582;2023-03-01T00:48:11;101330.81;;;-0.90;75.54
24558;BME280;12726;49.148;8.582;2023-03-01T00:50:57;101334.66;;;-0.94;75.88
24558;BME280;12726;49.148;8.582;2023-03-01T00:53:44;101334.66;;;-0.94;75.92
24558;BME280;12726;49.148;8.582;2023-03-01T00:56:30;101338.97;;;-0.93;75.92
24558;BME280;12726;49.148;8.582;2023-03-01T00:59:15;101349.19;;;-0.89;75.82
24558;BME280;12726;49.148;8.582;2023-03-01T01:02:01;101336.44;;;-0.95;76.07
24558;BME280;12726;49.148;8.582;2023-03-01T01:04:46;101350.72;;;-0.97;76.14
24558;BME280;12726;49.148;8.582;2023-03-01T01:07:32;101357.81;;;-0.98;76.16
24558;BME280;12726;49.148;8.582;2023-03-01T01:10:19;101356.28;;;-0.89;75.99
24558;BME280;12726;49.148;8.582;2023-03-01T01:13:04;101347.25;;;-0.98;76.24
24558;BME280;12726;49.148;8.582;2023-03-01T01:15:49;101341.34;;;-1.01;76.22
24558;BME280;12726;49.148;8.582;2023-03-01T01:18:35;101337.22;;;-1.16;76.61
24558;BME280;12726;49.148;8.582;2023-03-01T01:21:24;101336.44;;;-1.30;77.25
24558;BME280;12726;49.148;8.582;2023-03-01T01:24:09;101320.78;;;-1.44;77.31
24558;BME280;12726;49.148;8.582;2023-03-01T01:26:56;101323.47;;;-1.56;77.89
24558;BME280;12726;49.148;8.582;2023-03-01T01:29:41;101322.25;;;-1.64;78.41
24558;BME280;12726;49.148;8.582;2023-03-01T01:32:27;101317.63;;;-1.73;78.79
24558;BME280;12726;49.148;8.582;2023-03-01T01:35:12;101317.22;;;-1.79;78.84
24558;BME280;12726;49.148;8.582;2023-03-01T01:37:58;101319.34;;;-1.84;79.23
24558;BME280;12726;49.148;8.582;2023-03-01T01:40:43;101319.56;;;-1.87;79.72
24558;BME280;12726;49.148;8.582;2023-03-01T01:43:33;101309.34;;;-1.92;79.67
24558;BME280;12726;49.148;8.582;2023-03-01T01:46:24;101308.72;;;-1.95;80.31
24558;BME280;12726;49.148;8.582;2023-03-01T01:49:23;101301.84;;;-1.98;79.99
24558;BME280;12726;49.148;8.582;2023-03-01T01:52:11;101298.50;;;-2.00;80.46
24558;BME280;12726;49.148;8.582;2023-03-01T01:55:01;101297.56;;;-1.99;80.53
24558;BME280;12726;49.148;8.582;2023-03-01T01:57:51;101297.22;;;-1.94;80.85
24558;BME280;12726;49.148;8.582;2023-03-01T02:00:39;101295.19;;;-1.91;80.69
24558;BME280;12726;49.148;8.582;2023-03-01T02:03:27;101294.13;;;-1.88;80.43
24558;BME280;12726;49.148;8.582;2023-03-01T02:06:20;101282.63;;;-1.87;80.87
24558;BME280;12726;49.148;8.582;2023-03-01T02:09:11;101273.75;;;-1.86;81.07
24558;BME280;12726;49.148;8.582;2023-03-01T02:11:58;101271.63;;;-1.81;81.05
24558;BME280;12726;49.148;8.582;2023-03-01T02:14:44;101275.50;;;-1.74;81.15
24558;BME280;12726;49.148;8.582;2023-03-01T02:17:32;101265.13;;;-1.65;80.53
24558;BME280;12726;49.148;8.582;2023-03-01T02:20:22;101275.53;;;-1.63;80.24
24558;BME280;12726;49.148;8.582;2023-03-01T02:23:12;101263.31;;;-1.64;80.58
24558;BME280;12726;49.148;8.582;2023-03-01T02:26:02;101262.84;;;-1.58;80.50
24558;BME280;12726;49.148;8.582;2023-03-01T02:28:52;101256.84;;;-1.60;80.18
24558;BME280;12726;49.148;8.582;2023-03-01T02:31:37;101251.47;;;-1.59;80.38
24558;BME280;12726;49.148;8.582;2023-03-01T02:34:30;101239.09;;;-1.58;80.43
24558;BME280;12726;49.148;8.582;2023-03-01T02:37:16;101230.09;;;-1.55;80.06
24558;BME280;12726;49.148;8.582;2023-03-01T02:40:11;101229.13;;;-1.54;80.23
24558;BME280;12726;49.148;8.582;2023-03-01T02:42:59;101219.53;;;-1.55;80.24
24558;BME280;12726;49.148;8.582;2023-03-01T02:45:50;101227.34;;;-1.54;80.08
24558;BME280;12726;49.148;8.582;2023-03-01T02:48:41;101221.38;;;-1.45;79.75
24558;BME280;12726;49.148;8.582;2023-03-01T02:51:38;101227.50;;;-1.44;79.67
24558;BME280;12726;49.148;8.582;2023-03-01T02:54:29;101227.50;;;-1.44;79.92
24558;BME280;12726;49.148;8.582;2023-03-01T02:57:19;101231.19;;;-1.47;79.95
24558;BME280;12726;49.148;8.582;2023-03-01T03:00:09;101232.50;;;-1.52;79.96
24558;BME280;12726;49.148;8.582;2023-03-01T03:03:04;101221.47;;;-1.58;80.28
24558;BME280;12726;49.148;8.582;2023-03-01T03:05:50;101219.88;;;-1.60;80.36
24558;BME280;12726;49.148;8.582;2023-03-01T03:08:35;101218.19;;;-1.61;81.05
24558;BME280;12726;49.148;8.582;2023-03-01T03:11:20;101215.16;;;-1.68;80.89
24558;BME280;12726;49.148;8.582;2023-03-01T03:14:06;101216.13;;;-1.69;81.18
24558;BME280;12726;49.148;8.582;2023-03-01T03:16:56;101207.59;;;-1.72;81.39
24558;BME280;12726;49.148;8.582;2023-03-01T03:19:42;101204.44;;;-1.77;81.13
24558;BME280;12726;49.148;8.582;2023-03-01T03:22:29;101211.66;;;-1.79;80.98
24558;BME280;12726;49.148;8.582;2023-03-01T03:25:15;101204.06;;;-1.84;81.46
24558;BME280;12726;49.148;8.582;2023-03-01T03:28:00;101204.91;;;-1.83;81.44
24558;BME280;12726;49.148;8.582;2023-03-01T03:30:48;101202.16;;;-1.82;81.24
24558;BME280;12726;49.148;8.582;2023-03-01T03:33:33;101210.06;;;-1.82;81.65
24558;BME280;12726;49.148;8.582;2023-03-01T03:36:23;101200.25;;;-1.80;80.99
24558;BME280;12726;49.148;8.582;2023-03-01T03:39:09;101200.84;;;-1.76;81.32
24558;BME280;12726;49.148;8.582;2023-03-01T03:41:54;101200.16;;;-1.78;80.87
24558;BME280;12726;49.148;8.582;2023-03-01T03:44:39;101197.72;;;-1.81;80.81
24558;BME280;12726;49.148;8.582;2023-03-01T03:47:25;101186.56;;;-1.85;81.45
24558;BME280;12726;49.148;8.582;2023-03-01T03:50:11;101185.81;;;-1.87;81.41
24558;BME280;12726;49.148;8.582;2023-03-01T03:53:00;101193.13;;;-1.90;81.41
24558;BME280;12726;49.148;8.582;2023-03-01T03:55:45;101186.28;;;-1.93;81.39
24558;BME280;12726;49.148;8.582;2023-03-01T03:58:33;101188.19;;;-1.95;81.57
24558;BME280;12726;49.148;8.582;2023-03-01T04:01:18;101179.63;;;-1.99;81.87
24558;BME280;12726;49.148;8.582;2023-03-01T04:04:04;101188.84;;;-2.04;82.33
24558;BME280;12726;49.148;8.582;2023-03-01T04:06:51;101168.00;;;-2.07;81.73
24558;BME280;12726;49.148;8.582;2023-03-01T04:09:38;101168.56;;;-2.15;82.20
24558;BME280;12726;49.148;8.582;2023-03-01T04:12:23;101172.25;;;-2.17;82.80
24558;BME280;12726;49.148;8.582;2023-03-01T04:15:10;101178.25;;;-2.15;82.87
24558;BME280;12726;49.148;8.582;2023-03-01T04:17:57;101179.59;;;-2.10;82.61
24558;BME280;12726;49.148;8.582;2023-03-01T04:20:44;101181.41;;;-2.10;82.25
24558;BME280;12726;49.148;8.582;2023-03-01T04:23:30;101174.78;;;-2.16;82.73
24558;BME280;12726;49.148;8.582;2023-03-01T04:26:16;101183.75;;;-2.18;82.91
24558;BME280;12726;49.148;8.582;2023-03-01T04:29:02;101174.78;;;-2.16;82.98
24558;BME280;12726;49.148;8.582;2023-03-01T04:31:48;101167.91;;;-2.18;83.05
24558;BME280;12726;49.148;8.582;2023-03-01T04:34:34;101152.34;;;-2.21;83.21
24558;BME280;12726;49.148;8.582;2023-03-01T04:37:19;101177.63;;;-2.19;83.19
24558;BME280;12726;49.148;8.582;2023-03-01T04:40:06;101168.28;;;-2.23;83.42
24558;BME280;12726;49.148;8.582;2023-03-01T04:43:02;101160.56;;;-2.26;83.46
24558;BME280;12726;49.148;8.582;2023-03-01T04:45:48;101171.25;;;-2.27;83.32
24558;BME280;12726;49.148;8.582;2023-03-01T04:48:35;101171.00;;;-2.24;83.54
24558;BME280;12726;49.148;8.582;2023-03-01T04:51:20;101170.91;;;-2.23;83.66
24558;BME280;12726;49.148;8.582;2023-03-01T04:54:06;101179.31;;;-2.18;83.50
24558;BME280;12726;49.148;8.582;2023-03-01T04:56:53;101175.38;;;-2.12;83.03
24558;BME280;12726;49.148;8.582;2023-03-01T04:59:40;101176.13;;;-2.10;82.99
24558;BME280;12726;49.148;8.582;2023-03-01T05:02:25;101181.50;;;-2.12;82.90
24558;BME280;12726;49.148;8.582;2023-03-01T05:05:11;101171.91;;;-2.13;82.77
24558;BME280;12726;49.148;8.582;2023-03-01T05:07:58;101176.34;;;-2.13;83.00
24558;BME280;12726;49.148;8.582;2023-03-01T05:10:45;101172.13;;;-2.16;83.29
24558;BME280;12726;49.148;8.582;2023-03-01T05:13:31;101185.44;;;-2.17;83.15
24558;BME280;12726;49.148;8.582;2023-03-01T05:16:19;101182.06;;;-2.19;83.36
24558;BME280;12726;49.148;8.582;2023-03-01T05:19:04;101184.00;;;-2.21;83.67
24558;BME280;12726;49.148;8.582;2023-03-01T05:21:55;101177.97;;;-2.23;84.02
24558;BME280;12726;49.148;8.582;2023-03-01T05:24:57;101186.94;;;-2.26;83.91
24558;BME280;12726;49.148;8.582;2023-03-01T05:27:42;101176.28;;;-2.24;83.96
24558;BME280;12726;49.148;8.582;2023-03-01T05:30:27;101175.69;;;-2.28;83.91
24558;BME280;12726;49.148;8.582;2023-03-01T05:33:14;101166.09;;;-2.29;84.06
24558;BME280;12726;49.148;8.582;2023-03-01T05:35:59;101170.50;;;-2.29;83.58
24558;BME280;12726;49.148;8.582;2023-03-01T05:38:45;101174.09;;;-2.30;83.58
24558;BME280;12726;49.148;8.582;2023-03-01T05:41:30;101168.09;;;-2.32;83.76
24558;BME280;12726;49.148;8.582;2023-03-01T05:44:16;101172.31;;;-2.30;83.70
24558;BME280;12726;49.148;8.582;2023-03-01T05:47:01;101167.59;;;-2.38;83.81
24558;BME280;12726;49.148;8.582;2023-03-01T05:49:48;101174.53;;;-2.37;83.96
24558;BME280;12726;49.148;8.582;2023-03-01T05:52:34;101166.13;;;-2.42;83.72
24558;BME280;12726;49.148;8.582;2023-03-01T05:55:21;101160.22;;;-2.45;83.51
24558;BME280;12726;49.148;8.582;2023-03-01T05:58:10;101166.78;;;-2.51;83.95
24558;BME280;12726;49.148;8.582;2023-03-01T06:00:57;101161.72;;;-2.54;84.56
24558;BME280;12726;49.148;8.582;2023-03-01T06:03:42;101168.78;;;-2.54;84.07
24558;BME280;12726;49.148;8.582;2023-03-01T06:06:30;101176.84;;;-2.56;84.53
24558;BME280;12726;49.148;8.582;2023-03-01T06:09:18;101173.00;;;-2.52;84.50
24558;BME280;12726;49.148;8.582;2023-03-01T06:12:04;101169.72;;;-2.43;84.56
24558;BME280;12726;49.148;8.582;2023-03-01T06:14:49;101165.50;;;-2.45;84.87
24558;BME280;12726;49.148;8.582;2023-03-01T06:17:36;101168.88;;;-2.43;85.44
24558;BME280;12726;49.148;8.582;2023-03-01T06:20:23;101171.06;;;-2.37;84.58
24558;BME280;12726;49.148;8.582;2023-03-01T06:23:10;101167.25;;;-2.33;85.08
24558;BME280;12726;49.148;8.582;2023-03-01T06:25:56;101170.13;;;-2.36;84.89
24558;BME280;12726;49.148;8.582;2023-03-01T06:28:41;101174.53;;;-2.37;84.67
24558;BME280;12726;49.148;8.582;2023-03-01T06:31:26;101174.19;;;-2.32;85.01
24558;BME280;12726;49.148;8.582;2023-03-01T06:34:12;101172.91;;;-2.26;84.65
24558;BME280;12726;49.148;8.582;2023-03-01T06:36:57;101171.13;;;-2.26;84.07
24558;BME280;12726;49.148;8.582;2023-03-01T06:39:44;101165.63;;;-2.23;84.25
24558;BME280;12726;49.148;8.582;2023-03-01T06:42:29;101167.91;;;-2.18;84.00
24558;BME280;12726;49.148;8.582;2023-03-01T06:45:16;101169.69;;;-2.06;83.30
24558;BME280;12726;49.148;8.582;2023-03-01T06:48:03;101163.22;;;-2.02;83.42
24558;BME280;12726;49.148;8.582;2023-03-01T06:50:49;101165.88;;;-1.91;82.75
24558;BME280;12726;49.148;8.582;2023-03-01T06:53:34;101160.66;;;-1.80;82.81
24558;BME280;12726;49.148;8.582;2023-03-01T06:56:21;101155.66;;;-1.72;82.20
24558;BME280;12726;49.148;8.582;2023-03-01T06:59:07;101158.41;;;-1.62;81.29
24558;BME280;12726;49.148;8.582;2023-03-01T07:01:54;101153.66;;;-1.57;81.41
24558;BME280;12726;49.148;8.582;2023-03-01T07:04:40;101146.69;;;-1.47;80.81
24558;BME280;12726;49.148;8.582;2023-03-01T07:07:25;101151.28;;;-1.38;80.37
24558;BME280;12726;49.148;8.582;2023-03-01T07:10:11;101142.03;;;-1.32;79.76
24558;BME280;12726;49.148;8.582;2023-03-01T07:12:58;101142.06;;;-1.21;79.10
24558;BME280;12726;49.148;8.582;2023-03-01T07:15:44;101149.38;;;-1.13;78.58
24558;BME280;12726;49.148;8.582;2023-03-01T07:18:29;101133.53;;;-1.02;78.24
24558;BME280;12726;49.148;8.582;2023-03-01T07:21:14;101144.47;;;-0.96;78.04
24558;BME280;12726;49.148;8.582;2023-03-01T07:24:00;101137.13;;;-0.81;77.06
24558;BME280;12726;49.148;8.582;2023-03-01T07:26:48;101130.97;;;-0.59;76.47
24558;BME280;12726;49.148;8.582;2023-03-01T07:29:34;101128.50;;;-0.29;75.13
24558;BME280;12726;49.148;8.582;2023-03-01T07:32:20;101127.16;;;0.29;74.11
24558;BME280;12726;49.148;8.582;2023-03-01T07:35:06;101116.94;;;0.97;70.94
24558;BME280;12726;49.148;8.582;2023-03-01T07:37:51;101124.97;;;1.75;68.62
24558;BME280;12726;49.148;8.582;2023-03-01T07:40:37;101122.22;;;2.71;63.63
24558;BME280;12726;49.148;8.582;2023-03-01T07:43:22;101119.22;;;3.21;61.17
24558;BME280;12726;49.148;8.582;2023-03-01T07:46:09;101113.00;;;3.58;59.12
24558;BME280;12726;49.148;8.582;2023-03-01T07:48:55;101114.81;;;4.28;56.67
24558;BME280;12726;49.148;8.582;2023-03-01T07:51:43;101108.34;;;4.30;55.02
24558;BME280;12726;49.148;8.582;2023-03-01T07:54:31;101112.69;;;4.83;53.73
24558;BME280;12726;49.148;8.582;2023-03-01T07:57:17;101113.78;;;4.98;53.67
24558;BME280;12726;49.148;8.582;2023-03-01T08:00:03;101112.22;;;5.22;51.39
24558;BME280;12726;49.148;8.582;2023-03-01T08:02:49;101102.69;;;5.53;51.33
24558;BME280;12726;49.148;8.582;2023-03-01T08:05:35;101103.56;;;5.86;49.89
24558;BME280;12726;49.148;8.582;2023-03-01T08:08:20;101101.09;;;5.93;48.94
24558;BME280;12726;49.148;8.582;2023-03-01T08:11:07;101117.66;;;6.20;48.31
24558;BME280;12726;49.148;8.582;2023-03-01T08:13:54;101106.13;;;6.52;47.31
24558;BME280;12726;49.148;8.582;2023-03-01T08:16:40;101110.88;;;6.89;47.01
24558;BME280;12726;49.148;8.582;2023-03-01T08:19:27;101104.59;;;6.74;46.77
24558;BME280;12726;49.148;8.582;2023-03-01T08:22:12;101102.97;;;7.04;45.87
24558;BME280;12726;49.148;8.582;2023-03-01T08:24:57;101097.28;;;7.07;45.77
24558;BME280;12726;49.148;8.582;2023-03-01T08:27:43;101093.34;;;7.65;44.97
24558;BME280;12726;49.148;8.582;2023-03-01T08:30:28;101091.94;;;8.00;43.96
24558;BME280;12726;49.148;8.582;2023-03-01T08:33:13;101094.28;;;8.03;42.63
24558;BME280;12726;49.148;8.582;2023-03-01T08:36:05;101091.69;;;8.32;42.09
24558;BME280;12726;49.148;8.582;2023-03-01T08:38:51;101086.19;;;8.48;42.42
24558;BME280;12726;49.148;8.582;2023-03-01T08:41:36;101088.63;;;8.73;40.94
24558;BME280;12726;49.148;8.582;2023-03-01T08:44:22;101083.63;;;8.70;41.13
24558;BME280;12726;49.148;8.582;2023-03-01T08:47:08;101082.16;;;8.96;40.88
24558;BME280;12726;49.148;8.582;2023-03-01T08:49:53;101086.38;;;9.50;40.02
24558;BME280;12726;49.148;8.582;2023-03-01T08:52:40;101074.63;;;9.36;39.71
24558;BME280;12726;49.148;8.582;2023-03-01T08:55:25;101074.50;;;10.01;39.54
24558;BME280;12726;49.148;8.582;2023-03-01T08:58:11;101071.28;;;9.34;39.46
24558;BME280;12726;49.148;8.582;2023-03-01T09:00:56;101071.03;;;8.70;40.39
24558;BME280;12726;49.148;8.582;2023-03-01T09:03:42;101074.38;;;8.87;40.66
24558;BME280;12726;49.148;8.582;2023-03-01T09:06:30;101074.81;;;9.20;40.12
24558;BME280;12726;49.148;8.582;2023-03-01T09:09:17;101065.56;;;8.49;41.14
24558;BME280;12726;49.148;8.582;2023-03-01T09:12:03;101071.75;;;8.49;41.17
24558;BME280;12726;49.148;8.582;2023-03-01T09:14:49;101064.69;;;8.34;41.55
24558;BME280;12726;49.148;8.582;2023-03-01T09:17:34;101068.03;;;8.36;41.68
24558;BME280;12726;49.148;8.582;2023-03-01T09:20:19;101065.41;;;8.94;40.98
24558;BME280;12726;49.148;8.582;2023-03-01T09:23:05;101061.13;;;9.65;39.77
24558;BME280;12726;49.148;8.582;2023-03-01T09:25:52;101064.28;;;9.03;40.31
24558;BME280;12726;49.148;8.582;2023-03-01T09:28:38;101062.28;;;8.39;40.89
24558;BME280;12726;49.148;8.582;2023-03-01T09:31:24;101064.75;;;9.07;40.69
24558;BME280;12726;49.148;8.582;2023-03-01T09:34:13;101062.84;;;9.37;39.97
24558;BME280;12726;49.148;8.582;2023-03-01T09:36:59;101060.75;;;9.18;39.54
24558;BME280;12726;49.148;8.582;2023-03-01T09:39:45;101063.69;;;9.37;39.64
24558;BME280;12726;49.148;8.582;2023-03-01T09:42:34;101062.50;;;9.11;40.16
24558;BME280;12726;49.148;8.582;2023-03-01T09:45:26;101057.63;;;9.50;39.44
24558;BME280;12726;49.148;8.582;2023-03-01T09:48:16;101046.91;;;9.71;38.54
24558;BME280;12726;49.148;8.582;2023-03-01T09:51:06;101047.50;;;9.52;39.42
24558;BME280;12726;49.148;8.582;2023-03-01T09:53:53;101045.34;;;10.05;38.23
24558;BME280;12726;49.148;8.582;2023-03-01T09:56:44;101048.00;;;9.77;38.54
24558;BME280;12726;49.148;8.582;2023-03-01T09:59:40;101032.91;;;10.53;38.11
24558;BME280;12726;49.148;8.582;2023-03-01T10:02:37;101033.97;;;10.86;36.98
24558;BME280;12726;49.148;8.582;2023-03-01T10:05:47;101034.66;;;11.02;36.06
24558;BME280;12726;49.148;8.582;2023-03-01T10:08:37;101026.91;;;11.33;35.88
24558;BME280;12726;49.148;8.582;2023-03-01T10:11:29;101021.41;;;11.67;35.82
24558;BME280;12726;49.148;8.582;2023-03-01T10:14:23;101013.38;;;12.40;34.36
24558;BME280;12726;49.148;8.582;2023-03-01T10:17:24;101005.69;;;12.24;34.10
24558;BME280;12726;49.148;8.582;2023-03-01T10:20:17;101004.94;;;12.87;33.14
24558;BME280;12726;49.148;8.582;2023-03-01T10:23:04;101004.44;;;12.39;33.64
24558;BME280;12726;49.148;8.582;2023-03-01T10:26:01;100998.41;;;12.57;33.48
24558;BME280;12726;49.148;8.582;2023-03-01T10:28:57;100994.91;;;11.97;34.54
24558;BME280;12726;49.148;8.582;2023-03-01T10:31:47;100996.25;;;12.72;33.51
24558;BME280;12726;49.148;8.582;2023-03-01T10:34:36;100993.25;;;13.07;32.74
24558;BME280;12726;49.148;8.582;2023-03-01T10:37:21;100998.25;;;13.54;31.75
24558;BME280;12726;49.148;8.582;2023-03-01T10:40:10;100986.03;;;12.87;32.74
24558;BME280;12726;49.148;8.582;2023-03-01T10:42:58;100982.38;;;12.69;33.50
24558;BME280;12726;49.148;8.582;2023-03-01T10:45:44;100972.69;;;12.28;33.49
24558;BME280;12726;49.148;8.582;2023-03-01T10:48:29;100979.97;;;12.28;34.05
24558;BME280;12726;49.148;8.582;2023-03-01T10:51:17;100978.38;;;13.36;32.45
24558;BME280;12726;49.148;8.582;2023-03-01T10:54:04;100959.78;;;13.77;31.36
24558;BME280;12726;49.148;8.582;2023-03-01T10:56:52;100960.16;;;13.56;31.71
24558;BME280;12726;49.148;8.582;2023-03-01T10:59:39;100955.03;;;12.97;32.18
24558;BME280;12726;49.148;8.582;2023-03-01T11:02:28;100949.63;;;12.97;32.22
24558;BME280;12726;49.148;8.582;2023-03-01T11:05:18;100948.56;;;13.49;31.25
24558;BME280;12726;49.148;8.582;2023-03-01T11:08:05;100941.25;;;13.49;31.60
24558;BME280;12726;49.148;8.582;2023-03-01T11:10:51;100944.53;;;13.83;30.92
24558;BME280;12726;49.148;8.582;2023-03-01T11:13:38;100932.38;;;13.67;31.29
24558;BME280;12726;49.148;8.582;2023-03-01T11:16:34;100937.63;;;13.30;31.68
24558;BME280;12726;49.148;8.582;2023-03-01T11:19:21;100939.56;;;13.17;31.65
24558;BME280;12726;49.148;8.582;2023-03-01T11:22:11;100930.13;;;13.32;31.19
24558;BME280;12726;49.148;8.582;2023-03-01T11:24:59;100930.84;;;13.21;32.18
24558;BME280;12726;49.148;8.582;2023-03-01T11:27:45;100929.13;;;13.83;31.00
24558;BME280;12726;49.148;8.582;2023-03-01T11:30:34;100914.38;;;13.54;31.56
24558;BME280;12726;49.148;8.582;2023-03-01T11:33:33;100906.19;;;13.86;31.03
24558;BME280;12726;49.148;8.582;2023-03-01T11:36:26;100905.22;;;14.05;30.46
24558;BME280;12726;49.148;8.582;2023-03-01T11:39:18;100906.50;;;13.78;30.76
24558;BME280;12726;49.148;8.582;2023-03-01T11:42:12;100901.53;;;13.50;31.68
24558;BME280;12726;49.148;8.582;2023-03-01T11:45:03;100886.88;;;12.37;33.33
24558;BME280;12726;49.148;8.582;2023-03-01T11:48:02;100884.94;;;12.64;33.56
24558;BME280;12726;49.148;8.582;2023-03-01T11:50:52;100875.66;;;14.03;31.00
24558;BME280;12726;49.148;8.582;2023-03-01T11:54:02;100858.75;;;14.63;30.60
24558;BME280;12726;49.148;8.582;2023-03-01T11:56:54;100861.69;;;14.43;29.73
24558;BME280;12726;49.148;8.582;2023-03-01T12:00:00;100860.00;;;14.78;29.68
24558;BME280;12726;49.148;8.582;2023-03-01T12:03:23;100845.94;;;15.00;29.72
24558;BME280;12726;49.148;8.582;2023-03-01T12:06:29;100835.94;;;15.65;28.49
24558;BME280;12726;49.148;8.582;2023-03-01T12:09:31;100835.72;;;16.01;27.86
24558;BME280;12726;49.148;8.582;2023-03-01T12:12:25;100838.50;;;16.30;27.55
24558;BME280;12726;49.148;8.582;2023-03-01T12:15:34;100834.13;;;16.80;26.78
24558;BME280;12726;49.148;8.582;2023-03-01T12:18:32;100825.19;;;16.57;26.72
24558;BME280;12726;49.148;8.582;2023-03-01T12:21:33;100826.00;;;16.17;27.24
24558;BME280;12726;49.148;8.582;2023-03-01T12:27:46;100812.59;;;15.76;27.69
24558;BME280;12726;49.148;8.582;2023-03-01T12:30:49;100814.28;;;14.16;29.35
24558;BME280;12726;49.148;8.582;2023-03-01T12:33:45;100807.56;;;13.63;31.15
24558;BME280;12726;49.148;8.582;2023-03-01T12:36:55;100800.41;;;12.88;31.66
24558;BME280;12726;49.148;8.582;2023-03-01T12:39:55;100800.50;;;13.06;32.71
24558;BME280;12726;49.148;8.582;2023-03-01T12:42:48;100790.22;;;12.52;33.04
24558;BME280;12726;49.148;8.582;2023-03-01T12:45:50;100789.66;;;11.72;34.44
24558;BME280;12726;49.148;8.582;2023-03-01T12:48:47;100776.25;;;11.00;36.49
24558;BME280;12726;49.148;8.582;2023-03-01T12:51:34;100775.13;;;10.55;37.12
24558;BME280;12726;49.148;8.582;2023-03-01T12:54:26;100766.66;;;10.65;37.53
24558;BME280;12726;49.148;8.582;2023-03-01T12:57:15;100770.78;;;10.67;37.01
24558;BME280;12726;49.148;8.582;2023-03-01T13:00:17;100770.75;;;10.54;37.78
24558;BME280;12726;49.148;8.582;2023-03-01T13:03:18;100769.56;;;10.70;37.60
24558;BME280;12726;49.148;8.582;2023-03-01T13:06:11;100763.22;;;9.89;38.31
24558;BME280;12726;49.148;8.582;2023-03-01T13:09:04;100761.66;;;10.01;38.48
24558;BME280;12726;49.148;8.582;2023-03-01T13:11:52;100755.84;;;10.04;38.41
24558;BME280;12726;49.148;8.582;2023-03-01T13:14:45;100759.63;;;10.16;38.08
24558;BME280;12726;49.148;8.582;2023-03-01T13:17:33;100755.19;;;9.95;38.52
24558;BME280;12726;49.148;8.582;2023-03-01T13:20:30;100741.31;;;9.92;38.80
24558;BME280;12726;49.148;8.582;2023-03-01T13:23:25;100752.19;;;9.70;39.16
24558;BME280;12726;49.148;8.582;2023-03-01T13:26:13;100749.66;;;9.34;40.03
24558;BME280;12726;49.148;8.582;2023-03-01T13:28:58;100739.84;;;9.48;39.77
24558;BME280;12726;49.148;8.582;2023-03-01T13:31:59;100731.56;;;9.15;40.57
24558;BME280;12726;49.148;8.582;2023-03-01T13:34:57;100722.19;;;9.73;40.28
24558;BME280;12726;49.148;8.582;2023-03-01T13:37:44;100718.38;;;10.02;39.48
24558;BME280;12726;49.148;8.582;2023-03-01T13:40:58;100721.31;;;10.01;39.56
24558;BME280;12726;49.148;8.582;2023-03-01T13:43:46;100711.28;;;9.88;39.71
24558;BME280;12726;49.148;8.582;2023-03-01T13:46:32;100710.50;;;9.53;39.94
24558;BME280;12726;49.148;8.582;2023-03-01T13:49:19;100718.16;;;9.91;40.09
24558;BME280;12726;49.148;8.582;2023-03-01T13:52:27;100717.31;;;9.90;39.72
24558;BME280;12726;49.148;8.582;2023-03-01T13:55:23;100714.34;;;9.72;39.58
24558;BME280;12726;49.148;8.582;2023-03-01T13:58:18;100714.13;;;9.73;39.95
24558;BME280;12726;49.148;8.582;2023-03-01T14:01:06;100710.03;;;9.77;40.20
24558;BME280;12726;49.148;8.582;2023-03-01T14:03:52;100712.06;;;9.75;40.29
24558;BME280;12726;49.148;8.582;2023-03-01T14:06:37;100702.81;;;9.85;39.99
24558;BME280;12726;49.148;8.582;2023-03-01T14:09:25;100710.63;;;9.73;39.88
24558;BME280;12726;49.148;8.582;2023-03-01T14:12:36;100700.59;;;9.54;41.17
24558;BME280;12726;49.148;8.582;2023-03-01T14:15:29;100703.41;;;9.39;41.28
24558;BME280;12726;49.148;8.582;2023-03-01T14:18:21;100706.75;;;9.13;41.47
24558;BME280;12726;49.148;8.582;2023-03-01T14:21:09;100706.56;;;9.15;41.64
24558;BME280;12726;49.148;8.582;2023-03-01T14:23:54;100698.88;;;9.12;41.43
24558;BME280;12726;49.148;8.582;2023-03-01T14:26:40;100703.22;;;8.85;42.08
24558;BME280;12726;49.148;8.582;2023-03-01T14:29:33;100691.22;;;8.81;42.39
24558;BME280;12726;49.148;8.582;2023-03-01T14:32:21;100701.25;;;8.72;42.47
24558;BME280;12726;49.148;8.582;2023-03-01T14:35:19;100688.06;;;8.77;42.92
24558;BME280;12726;49.148;8.582;2023-03-01T14:38:05;100693.25;;;8.79;42.73
24558;BME280;12726;49.148;8.582;2023-03-01T14:40:55;100689.69;;;8.72;42.78
24558;BME280;12726;49.148;8.582;2023-03-01T14:43:44;100689.03;;;8.70;42.70
24558;BME280;12726;49.148;8.582;2023-03-01T14:46:34;100682.78;;;8.62;42.87
24558;BME280;12726;49.148;8.582;2023-03-01T14:49:23;100676.94;;;8.52;43.45